Terminal Aerodrome Forecast
Issued by NWS

Home | Current Version | Previous Version | Graphics & Text | Print | Product List | Glossary On
Versions: 1 2 3 4 5 6 7 8 9 10 11 12 13 14 15 16 17 18 19 20 21 22 23
000
FTUS43 KICT 292322
TAFHUT
TAF
KHUT 292322Z 3000/3024 VRB03KT P6SM SCT030 BKN200
     FM300200 34011KT P6SM VCTS SCT050 BKN100CB
     FM300500 35016G23KT P6SM VCSH BKN025 OVC100
     FM301100 35014G20KT P6SM FEW025 SCT100
     FM301700 36012KT P6SM SCT030=

USA.gov is the U.S. government's official web portal to all federal, state and local government web resources and services.